Wetterdaten: Woche 01.07.02 - 07.07.02 (KW27)
Datum Zeit Temperatur Luftfeuchte Luftdruck Regenmenge Wind Richtung Taupunkt Windchill
01.07.2002 00:00 13.5 C 77 % 1015.9 hPa 0.0 l/m 2.8 km/h (1 Bft) O-SO 9.6 C 13.5 C
01.07.2002 01:00 12.7 C 81 % 1015.9 hPa 0.0 l/m 0.5 km/h (0 Bft) O 9.6 C 12.7 C
01.07.2002 02:00 12.4 C 84 % 1015.9 hPa 0.0 l/m 0.0 km/h (0 Bft) N 9.9 C 12.4 C
01.07.2002 03:00 12.8 C 85 % 1015.9 hPa 0.0 l/m 0.0 km/h (0 Bft) N 10.4 C 12.8 C
01.07.2002 04:00 12.6 C 86 % 1015.9 hPa 0.0 l/m 0.6 km/h (0 Bft) O 10.2 C 12.6 C
01.07.2002 05:00 11.0 C 90 % 1015.9 hPa 0.0 l/m 0.0 km/h (0 Bft) N 9.5 C 11.0 C
01.07.2002 06:00 10.8 C 92 % 1015.9 hPa 0.0 l/m 0.0 km/h (0 Bft) N 9.5 C 10.8 C
01.07.2002 07:00 12.3 C 82 % 1015.9 hPa 0.0 l/m 0.0 km/h (0 Bft) N 9.2 C 12.3 C
01.07.2002 08:00 14.6 C 76 % 1015.6 hPa 0.0 l/m 0.5 km/h (0 Bft) O-SO 10.4 C 14.6 C
01.07.2002 09:00 18.2 C 61 % 1014.9 hPa 0.0 l/m 7.5 km/h (2 Bft) O-SO 10.5 C 18.2 C
01.07.2002 10:00 20.5 C 50 % 1014.6 hPa 0.0 l/m 10.0 km/h (2 Bft) O-SO 9.6 C 20.5 C
01.07.2002 11:00 22.2 C 43 % 1013.6 hPa 0.0 l/m 6.3 km/h (2 Bft) S-SO 9.1 C 22.2 C
01.07.2002 12:00 23.6 C 37 % 1012.5 hPa 0.0 l/m 10.0 km/h (2 Bft) S 8.1 C 23.6 C
01.07.2002 13:00 25.2 C 35 % 1011.3 hPa 0.0 l/m 9.2 km/h (2 Bft) S 8.5 C 25.2 C
01.07.2002 14:00 26.4 C 32 % 1010.1 hPa 0.0 l/m 17.4 km/h (3 Bft) S-SW 8.1 C 26.4 C
01.07.2002 15:00 27.7 C 31 % 1008.9 hPa 0.0 l/m 17.3 km/h (3 Bft) SW 8.8 C 27.7 C
01.07.2002 16:00 28.4 C 28 % 1008.3 hPa 0.0 l/m 15.2 km/h (3 Bft) S-SW 7.9 C 28.4 C
01.07.2002 17:00 28.0 C 32 % 1007.3 hPa 0.0 l/m 16.9 km/h (3 Bft) NW 9.6 C 28.0 C
01.07.2002 18:00 27.1 C 39 % 1006.6 hPa 0.0 l/m 14.0 km/h (3 Bft) W-NW 11.9 C 27.1 C
01.07.2002 19:00 25.5 C 41 % 1006.6 hPa 0.0 l/m 20.3 km/h (4 Bft) NW 11.3 C 25.5 C
01.07.2002 20:00 23.5 C 46 % 1007.5 hPa 0.0 l/m 5.4 km/h (1 Bft) W-NW 11.0 C 23.5 C
01.07.2002 21:00 22.2 C 50 % 1007.7 hPa 0.0 l/m 1.1 km/h (0 Bft) W-SW 11.4 C 22.2 C
01.07.2002 22:00 20.4 C 56 % 1007.7 hPa 0.0 l/m 2.1 km/h (1 Bft) O-SO 11.4 C 20.4 C
01.07.2002 23:00 19.0 C 64 % 1007.7 hPa 0.0 l/m 2.2 km/h (1 Bft) O-SO 11.9 C 19.0 C
02.07.2002 00:00 18.2 C 69 % 1007.7 hPa 0.0 l/m 2.6 km/h (1 Bft) O-SO 12.5 C 18.2 C
02.07.2002 01:00 18.6 C 66 % 1008.1 hPa 0.0 l/m 8.8 km/h (2 Bft) NW 12.1 C 18.6 C
02.07.2002 02:00 17.8 C 63 % 1008.7 hPa 0.0 l/m 20.7 km/h (4 Bft) NW 10.5 C 17.8 C
02.07.2002 03:00 15.4 C 84 % 1008.7 hPa 0.0 l/m 0.9 km/h (0 Bft) NW 12.7 C 15.4 C
02.07.2002 04:00 15.2 C 84 % 1007.9 hPa 0.0 l/m 0.5 km/h (0 Bft) SO 12.5 C 15.2 C
02.07.2002 05:00 14.9 C 85 % 1007.9 hPa 0.0 l/m 1.0 km/h (0 Bft) O 12.4 C 14.9 C
02.07.2002 06:00 15.5 C 77 % 1008.4 hPa 0.0 l/m 3.1 km/h (1 Bft) W 11.4 C 15.5 C
02.07.2002 07:00 16.1 C 72 % 1008.3 hPa 0.0 l/m 3.7 km/h (1 Bft) W-NW 11.1 C 16.1 C
02.07.2002 08:00 16.9 C 68 % 1008.7 hPa 0.0 l/m 5.6 km/h (1 Bft) W-NW 11.0 C 16.9 C
02.07.2002 09:00 17.1 C 67 % 1008.7 hPa 0.0 l/m 8.5 km/h (2 Bft) W-NW 11.0 C 17.1 C
02.07.2002 10:00 17.7 C 67 % 1008.7 hPa 0.0 l/m 15.4 km/h (3 Bft) NW 11.5 C 17.7 C
02.07.2002 11:00 18.2 C 66 % 1008.7 hPa 0.0 l/m 20.4 km/h (4 Bft) NW 11.7 C 18.2 C
02.07.2002 12:00 16.5 C 72 % 1009.3 hPa 0.0 l/m 31.3 km/h (5 Bft) NW 11.3 C 16.5 C
02.07.2002 13:00 16.1 C 67 % 1009.7 hPa 0.0 l/m 28.5 km/h (4 Bft) NW 10.0 C 16.1 C
02.07.2002 14:00 16.4 C 68 % 1010.1 hPa 0.0 l/m 18.6 km/h (3 Bft) NW 10.4 C 16.4 C
02.07.2002 15:00 16.4 C 69 % 1010.8 hPa 0.0 l/m 10.6 km/h (2 Bft) NW 10.6 C 16.4 C
02.07.2002 16:00 16.7 C 66 % 1010.8 hPa 0.0 l/m 12.6 km/h (3 Bft) NW 10.2 C 16.7 C
02.07.2002 17:00 17.2 C 60 % 1010.8 hPa 0.0 l/m 17.7 km/h (3 Bft) NW 9.5 C 17.2 C
02.07.2002 18:00 17.0 C 60 % 1010.8 hPa 0.0 l/m 10.2 km/h (2 Bft) NW 9.3 C 17.0 C
02.07.2002 19:00 16.9 C 60 % 1010.8 hPa 0.0 l/m 12.2 km/h (2 Bft) NW 9.1 C 16.9 C
02.07.2002 20:00 16.8 C 61 % 1010.9 hPa 0.0 l/m 9.5 km/h (2 Bft) NW 9.2 C 16.8 C
02.07.2002 21:00 16.5 C 62 % 1011.0 hPa 0.0 l/m 3.4 km/h (1 Bft) W-NW 9.2 C 16.5 C
02.07.2002 22:00 15.9 C 67 % 1011.8 hPa 0.0 l/m 0.1 km/h (0 Bft) W-NW 9.7 C 15.9 C
02.07.2002 23:00 15.1 C 75 % 1011.8 hPa 0.0 l/m 3.6 km/h (1 Bft) SO 10.7 C 15.1 C
03.07.2002 00:00 14.8 C 78 % 1011.8 hPa 0.0 l/m 3.9 km/h (1 Bft) O-SO 11.0 C 14.8 C
03.07.2002 01:00 14.6 C 80 % 1011.2 hPa 0.0 l/m 2.0 km/h (1 Bft) O-SO 11.1 C 14.6 C
03.07.2002 02:00 14.4 C 81 % 1010.8 hPa 0.0 l/m 1.7 km/h (1 Bft) O-SO 11.2 C 14.4 C
03.07.2002 03:00 14.3 C 83 % 1009.7 hPa 0.0 l/m 0.0 km/h (0 Bft) N 11.4 C 14.3 C
03.07.2002 04:00 14.0 C 85 % 1009.7 hPa 0.0 l/m 0.0 km/h (0 Bft) N 11.6 C 14.0 C
03.07.2002 05:00 12.2 C 91 % 1009.7 hPa 0.0 l/m 0.4 km/h (0 Bft) O-SO 10.8 C 12.2 C
03.07.2002 06:00 11.8 C 94 % 1009.7 hPa 0.0 l/m 0.0 km/h (0 Bft) N 10.8 C 11.8 C
03.07.2002 07:00 12.8 C 89 % 1009.3 hPa 0.0 l/m 0.0 km/h (0 Bft) N 11.0 C 12.8 C
03.07.2002 08:00 14.9 C 81 % 1008.7 hPa 0.0 l/m 0.3 km/h (0 Bft) S-SW 11.8 C 14.9 C
03.07.2002 09:00 17.0 C 74 % 1008.1 hPa 0.0 l/m 1.1 km/h (0 Bft) SO 12.4 C 17.0 C
03.07.2002 10:00 18.9 C 64 % 1007.7 hPa 0.0 l/m 5.7 km/h (1 Bft) SO 12.0 C 18.9 C
03.07.2002 11:00 21.0 C 53 % 1007.7 hPa 0.0 l/m 9.5 km/h (2 Bft) SO 11.0 C 21.0 C
03.07.2002 12:00 23.5 C 45 % 1006.7 hPa 0.0 l/m 12.1 km/h (2 Bft) SO 11.0 C 23.5 C
03.07.2002 13:00 24.3 C 42 % 1006.6 hPa 0.0 l/m 13.1 km/h (3 Bft) SO 10.7 C 24.3 C
03.07.2002 14:00 24.4 C 42 % 1006.6 hPa 0.0 l/m 13.9 km/h (3 Bft) NW 10.4 C 24.4 C
03.07.2002 15:00 23.0 C 45 % 1006.6 hPa 0.0 l/m 15.8 km/h (3 Bft) W-NW 10.5 C 23.0 C
03.07.2002 16:00 21.7 C 50 % 1006.9 hPa 0.0 l/m 12.0 km/h (2 Bft) NW 10.7 C 21.7 C
03.07.2002 17:00 20.9 C 53 % 1007.7 hPa 0.0 l/m 8.8 km/h (2 Bft) W-NW 11.0 C 20.9 C
03.07.2002 18:00 21.0 C 52 % 1007.7 hPa 0.0 l/m 22.1 km/h (4 Bft) NW 10.7 C 21.0 C
03.07.2002 19:00 20.6 C 51 % 1008.3 hPa 0.0 l/m 19.6 km/h (3 Bft) W-NW 10.2 C 20.6 C
03.07.2002 20:00 20.2 C 52 % 1008.0 hPa 0.0 l/m 17.8 km/h (3 Bft) W 10.0 C 20.2 C
03.07.2002 21:00 19.5 C 58 % 1007.7 hPa 0.0 l/m 14.0 km/h (3 Bft) W-NW 11.0 C 19.5 C
03.07.2002 22:00 19.0 C 63 % 1007.7 hPa 0.0 l/m 17.7 km/h (3 Bft) W-NW 11.8 C 19.0 C
03.07.2002 23:00 15.8 C 78 % 1009.1 hPa 0.9 l/m 31.7 km/h (5 Bft) NW 11.8 C 15.8 C
04.07.2002 00:00 13.7 C 97 % 1009.7 hPa 0.3 l/m 24.9 km/h (4 Bft) NW 13.1 C 13.7 C
04.07.2002 01:00 13.7 C 97 % 1010.4 hPa 0.6 l/m 25.2 km/h (4 Bft) NW 13.3 C 13.7 C
04.07.2002 02:00 13.3 C 95 % 1011.3 hPa 0.0 l/m 23.9 km/h (4 Bft) NW 12.5 C 13.3 C
04.07.2002 03:00 12.7 C 95 % 1012.5 hPa 0.3 l/m 22.0 km/h (4 Bft) NW 11.9 C 12.7 C
04.07.2002 04:00 12.0 C 95 % 1013.8 hPa 0.0 l/m 16.2 km/h (3 Bft) NW 11.2 C 12.0 C
04.07.2002 05:00 11.4 C 97 % 1014.7 hPa 0.0 l/m 16.8 km/h (3 Bft) W-NW 10.9 C 11.4 C
04.07.2002 06:00 11.7 C 92 % 1015.8 hPa 0.0 l/m 13.8 km/h (3 Bft) NW 10.4 C 11.7 C
04.07.2002 07:00 12.5 C 81 % 1017.1 hPa 0.0 l/m 15.9 km/h (3 Bft) W-NW 9.4 C 12.5 C
04.07.2002 08:00 12.9 C 75 % 1018.0 hPa 0.0 l/m 23.7 km/h (4 Bft) NW 8.6 C 12.9 C
04.07.2002 09:00 13.7 C 73 % 1018.5 hPa 0.0 l/m 18.1 km/h (3 Bft) NW 8.9 C 13.7 C
04.07.2002 10:00 14.1 C 69 % 1019.0 hPa 0.0 l/m 18.7 km/h (3 Bft) NW 8.5 C 14.1 C
04.07.2002 11:00 14.3 C 66 % 1019.0 hPa 0.0 l/m 30.0 km/h (5 Bft) NW 8.0 C 14.3 C
04.07.2002 12:00 15.7 C 58 % 1019.3 hPa 0.0 l/m 28.2 km/h (4 Bft) NW 7.3 C 15.7 C
04.07.2002 13:00 17.4 C 47 % 1020.0 hPa 0.0 l/m 25.1 km/h (4 Bft) W-NW 5.9 C 17.4 C
04.07.2002 14:00 18.6 C 46 % 1020.1 hPa 0.0 l/m 24.8 km/h (4 Bft) NW 6.7 C 18.6 C
04.07.2002 15:00 18.3 C 46 % 1020.1 hPa 0.0 l/m 21.6 km/h (4 Bft) NW 6.3 C 18.3 C
04.07.2002 16:00 18.0 C 49 % 1020.1 hPa 0.0 l/m 19.6 km/h (3 Bft) NW 7.0 C 18.0 C
04.07.2002 17:00 17.8 C 49 % 1020.1 hPa 0.0 l/m 20.5 km/h (4 Bft) NW 6.8 C 17.8 C
04.07.2002 18:00 17.8 C 50 % 1020.1 hPa 0.0 l/m 11.9 km/h (2 Bft) NW 7.1 C 17.8 C
04.07.2002 19:00 17.9 C 53 % 1020.9 hPa 0.0 l/m 5.3 km/h (1 Bft) NW 8.2 C 17.9 C
04.07.2002 20:00 17.0 C 58 % 1020.2 hPa 0.0 l/m 3.1 km/h (1 Bft) W-NW 8.7 C 17.0 C
04.07.2002 21:00 14.3 C 70 % 1020.2 hPa 0.0 l/m 3.9 km/h (1 Bft) O-SO 8.8 C 14.3 C
04.07.2002 22:00 12.0 C 81 % 1020.5 hPa 0.0 l/m 6.8 km/h (2 Bft) O-SO 8.8 C 12.0 C
04.07.2002 23:00 10.2 C 89 % 1020.4 hPa 0.0 l/m 4.1 km/h (1 Bft) O-SO 8.4 C 10.1 C
05.07.2002 00:00 9.3 C 94 % 1020.1 hPa 0.0 l/m 1.1 km/h (1 Bft) O-SO 8.3 C 9.2 C
05.07.2002 01:00 8.5 C 96 % 1020.1 hPa 0.0 l/m 3.5 km/h (1 Bft) O-SO 7.9 C 8.3 C
05.07.2002 02:00 7.5 C 98 % 1020.1 hPa 0.0 l/m 0.9 km/h (0 Bft) O-SO 7.2 C 7.5 C
05.07.2002 03:00 6.8 C 100 % 1019.0 hPa 0.0 l/m 0.9 km/h (0 Bft) O-SO 6.8 C 6.7 C
05.07.2002 04:00 6.3 C 100 % 1019.0 hPa 0.0 l/m 0.6 km/h (0 Bft) O-SO 6.3 C 6.3 C
05.07.2002 05:00 5.9 C 100 % 1019.0 hPa 0.0 l/m 0.0 km/h (0 Bft) N 5.9 C 5.9 C
05.07.2002 06:00 6.6 C 100 % 1018.7 hPa 0.0 l/m 0.4 km/h (0 Bft) O-SO 6.6 C 6.6 C
05.07.2002 07:00 8.4 C 97 % 1018.5 hPa 0.0 l/m 0.0 km/h (0 Bft) N 8.0 C 8.4 C
05.07.2002 08:00 10.6 C 88 % 1018.0 hPa 0.0 l/m 0.3 km/h (0 Bft) W-NW 8.6 C 10.6 C
05.07.2002 09:00 13.7 C 75 % 1017.7 hPa 0.0 l/m 0.4 km/h (0 Bft) W-NW 9.2 C 13.7 C
05.07.2002 10:00 16.8 C 61 % 1017.0 hPa 0.0 l/m 1.8 km/h (1 Bft) W-NW 9.1 C 16.8 C
05.07.2002 11:00 19.1 C 52 % 1016.4 hPa 0.0 l/m 2.7 km/h (1 Bft) NW 8.8 C 19.1 C
05.07.2002 12:00 21.0 C 43 % 1015.7 hPa 0.0 l/m 6.1 km/h (2 Bft) O-SO 8.0 C 21.0 C
05.07.2002 13:00 22.7 C 38 % 1014.9 hPa 0.0 l/m 7.5 km/h (2 Bft) O-SO 7.7 C 22.7 C
05.07.2002 14:00 23.8 C 36 % 1014.2 hPa 0.0 l/m 2.8 km/h (1 Bft) O-SO 7.9 C 23.8 C
05.07.2002 15:00 25.2 C 38 % 1013.6 hPa 0.0 l/m 7.3 km/h (2 Bft) O-SO 9.9 C 25.2 C
05.07.2002 16:00 26.1 C 36 % 1012.8 hPa 0.0 l/m 4.3 km/h (1 Bft) O-SO 9.6 C 26.1 C
05.07.2002 17:00 26.0 C 36 % 1012.2 hPa 0.0 l/m 3.9 km/h (1 Bft) O-SO 9.6 C 26.0 C
05.07.2002 18:00 26.2 C 39 % 1011.8 hPa 0.0 l/m 1.8 km/h (1 Bft) W-NW 10.9 C 26.2 C
05.07.2002 19:00 25.1 C 40 % 1011.8 hPa 0.0 l/m 0.3 km/h (0 Bft) NW 10.4 C 25.1 C
05.07.2002 20:00 22.5 C 49 % 1011.8 hPa 0.0 l/m 0.0 km/h (0 Bft) N 11.3 C 22.5 C
05.07.2002 21:00 20.1 C 63 % 1012.4 hPa 0.0 l/m 3.1 km/h (1 Bft) O 12.8 C 20.1 C
05.07.2002 22:00 19.2 C 65 % 1012.8 hPa 0.0 l/m 3.6 km/h (1 Bft) SO 12.5 C 19.2 C
05.07.2002 23:00 19.2 C 62 % 1012.8 hPa 0.0 l/m 1.6 km/h (1 Bft) O-SO 11.7 C 19.2 C
06.07.2002 00:00 18.8 C 56 % 1012.8 hPa 0.0 l/m 2.1 km/h (1 Bft) SO 9.7 C 18.8 C
06.07.2002 01:00 18.0 C 59 % 1012.8 hPa 0.0 l/m 1.8 km/h (1 Bft) SO 9.9 C 18.0 C
06.07.2002 02:00 17.3 C 71 % 1012.8 hPa 0.0 l/m 1.6 km/h (1 Bft) O-SO 12.0 C 17.3 C
06.07.2002 03:00 16.0 C 76 % 1012.8 hPa 0.9 l/m 2.1 km/h (1 Bft) NW 11.7 C 16.0 C
06.07.2002 04:00 15.1 C 86 % 1013.1 hPa 0.9 l/m 0.2 km/h (0 Bft) O 12.8 C 15.1 C
06.07.2002 05:00 14.3 C 96 % 1014.0 hPa 1.5 l/m 0.1 km/h (0 Bft) N 13.7 C 14.3 C
06.07.2002 06:00 13.9 C 99 % 1013.9 hPa 1.2 l/m 1.8 km/h (1 Bft) SO 13.8 C 13.9 C
06.07.2002 07:00 14.0 C 99 % 1014.5 hPa 0.3 l/m 0.5 km/h (0 Bft) W-NW 13.9 C 14.0 C
06.07.2002 08:00 14.2 C 99 % 1014.9 hPa 0.0 l/m 0.0 km/h (0 Bft) N 14.0 C 14.2 C
06.07.2002 09:00 14.4 C 98 % 1014.9 hPa 0.0 l/m 0.0 km/h (0 Bft) N 14.2 C 14.4 C
06.07.2002 10:00 14.7 C 95 % 1015.0 hPa 0.0 l/m 0.4 km/h (0 Bft) W-NW 13.8 C 14.7 C
06.07.2002 11:00 15.8 C 89 % 1015.9 hPa 0.0 l/m 0.3 km/h (0 Bft) W-NW 14.0 C 15.8 C
06.07.2002 12:00 17.2 C 78 % 1015.9 hPa 0.0 l/m 0.3 km/h (0 Bft) W-SW 13.3 C 17.2 C
06.07.2002 13:00 17.4 C 80 % 1015.9 hPa 0.0 l/m 1.0 km/h (0 Bft) O-SO 14.0 C 17.4 C
06.07.2002 14:00 17.8 C 80 % 1015.9 hPa 0.0 l/m 0.8 km/h (0 Bft) N-NW 14.3 C 17.8 C
06.07.2002 15:00 19.0 C 71 % 1015.9 hPa 0.0 l/m 4.7 km/h (1 Bft) W 13.6 C 19.0 C
06.07.2002 16:00 20.7 C 58 % 1015.9 hPa 0.0 l/m 11.2 km/h (2 Bft) W-NW 12.1 C 20.7 C
06.07.2002 17:00 20.0 C 60 % 1016.3 hPa 0.0 l/m 9.3 km/h (2 Bft) W-NW 11.9 C 20.0 C
06.07.2002 18:00 19.0 C 66 % 1017.0 hPa 0.0 l/m 8.9 km/h (2 Bft) NW 12.5 C 19.0 C
06.07.2002 19:00 18.5 C 74 % 1017.0 hPa 0.0 l/m 1.7 km/h (1 Bft) O-SO 13.7 C 18.5 C
06.07.2002 20:00 18.6 C 76 % 1017.6 hPa 0.0 l/m 3.5 km/h (1 Bft) SO 14.2 C 18.6 C
06.07.2002 21:00 16.7 C 81 % 1018.3 hPa 0.0 l/m 4.6 km/h (1 Bft) SO 13.3 C 16.7 C
06.07.2002 22:00 15.5 C 88 % 1019.0 hPa 0.0 l/m 3.1 km/h (1 Bft) O-SO 13.5 C 15.5 C
06.07.2002 23:00 15.4 C 93 % 1019.0 hPa 0.0 l/m 0.2 km/h (0 Bft) O-SO 14.3 C 15.4 C
07.07.2002 00:00 15.2 C 95 % 1019.6 hPa 0.0 l/m 0.0 km/h (0 Bft) N 14.4 C 15.2 C
07.07.2002 01:00 15.1 C 98 % 1020.1 hPa 0.0 l/m 1.5 km/h (1 Bft) SO 14.7 C 15.1 C
07.07.2002 02:00 14.8 C 98 % 1020.0 hPa 0.0 l/m 0.5 km/h (0 Bft) O-SO 14.6 C 14.8 C
07.07.2002 03:00 14.7 C 99 % 1019.9 hPa 0.0 l/m 0.2 km/h (0 Bft) N 14.5 C 14.7 C
07.07.2002 04:00 14.7 C 99 % 1019.7 hPa 0.0 l/m 0.3 km/h (0 Bft) O-SO 14.6 C 14.7 C
07.07.2002 05:00 14.7 C 98 % 1020.0 hPa 0.0 l/m 0.7 km/h (0 Bft) SO 14.4 C 14.7 C
07.07.2002 06:00 14.6 C 98 % 1019.9 hPa 0.0 l/m 0.0 km/h (0 Bft) N 14.2 C 14.6 C
07.07.2002 07:00 15.0 C 94 % 1020.1 hPa 0.0 l/m 0.3 km/h (0 Bft) O 14.1 C 15.0 C
07.07.2002 08:00 16.3 C 81 % 1020.1 hPa 0.0 l/m 7.9 km/h (2 Bft) NW 13.1 C 16.3 C
07.07.2002 09:00 17.7 C 73 % 1020.1 hPa 0.0 l/m 4.7 km/h (1 Bft) NW 12.8 C 17.7 C
07.07.2002 10:00 19.0 C 66 % 1020.1 hPa 0.0 l/m 2.9 km/h (1 Bft) W-NW 12.5 C 19.0 C
07.07.2002 11:00 20.8 C 56 % 1020.1 hPa 0.0 l/m 2.2 km/h (1 Bft) W 11.6 C 20.8 C
07.07.2002 12:00 22.2 C 50 % 1019.2 hPa 0.0 l/m 3.6 km/h (1 Bft) O-SO 11.1 C 22.2 C
07.07.2002 13:00 23.3 C 47 % 1019.0 hPa 0.0 l/m 3.4 km/h (1 Bft) W-NW 11.3 C 23.3 C
07.07.2002 14:00 24.5 C 42 % 1018.3 hPa 0.0 l/m 3.4 km/h (1 Bft) W-NW 10.8 C 24.5 C
07.07.2002 15:00 25.3 C 39 % 1018.0 hPa 0.0 l/m 3.3 km/h (1 Bft) NW 10.4 C 25.3 C
07.07.2002 16:00 25.4 C 42 % 1018.0 hPa 0.0 l/m 1.8 km/h (1 Bft) W-NW 11.7 C 25.4 C
07.07.2002 17:00 25.9 C 41 % 1017.5 hPa 0.0 l/m 0.4 km/h (0 Bft) SO 11.4 C 25.9 C
07.07.2002 18:00 26.0 C 41 % 1017.0 hPa 0.0 l/m 7.4 km/h (2 Bft) W-NW 11.8 C 26.0 C
07.07.2002 19:00 24.9 C 45 % 1017.0 hPa 0.0 l/m 2.3 km/h (1 Bft) W-NW 12.1 C 24.9 C
07.07.2002 20:00 23.5 C 51 % 1017.0 hPa 0.0 l/m 0.2 km/h (0 Bft) N 12.8 C 23.5 C
07.07.2002 21:00 19.8 C 65 % 1017.0 hPa 0.0 l/m 1.3 km/h (1 Bft) O-SO 12.8 C 19.8 C
07.07.2002 22:00 16.9 C 78 % 1017.0 hPa 0.0 l/m 1.7 km/h (1 Bft) O-SO 13.1 C 16.9 C
07.07.2002 23:00 15.5 C 84 % 1017.0 hPa 0.0 l/m 1.5 km/h (1 Bft) O-SO 12.8 C 15.5 C
Min-Datum _ 05.07.02 01.07.02 01.07.02 - 01.07.02 - 04.07.02 05.07.02
_ Min-Zeit 05:07 16:42 17:42 - 00:00 - 13:18 06:13
Minimum _ 5.7 C 25 % 1006.6 hPa - 0.0 km/h (0 Bft) - 4.7 C 4.8 C
Max-Datum _ 01.07.02 05.07.02 04.07.02 06.07.02 03.07.02 - 06.07.02 01.07.02
_ Max-Zeit 16:12 03:07 19:12 04:00 23:35 - 13:50 16:12
Maximum _ 28.8 C 100 % 1021.1 hPa 1.5 l/m 55.6 km/h
NW (7 Bft)
- 14.9 C 28.8 C
Durchschnitt _ 17.4 C 69 % 1014.0 hPa #6.9 l/m 7.3 km/h (2 Bft) NW 10.8 C 17.4 C

Durchschnitt Minimum Temp.16.6 C
Durchschnitt Maximum Temp.18.2 C
© Kaiko 2002